createdAt,value
2023-02-04T00:02:30.269Z,12.20
2023-02-04T00:05:20.157Z,12.33
2023-02-04T00:08:11.089Z,11.97
2023-02-04T00:11:00.064Z,11.13
2023-02-04T00:13:48.773Z,11.00
2023-02-04T00:16:37.816Z,11.60
2023-02-04T00:19:26.530Z,10.87
2023-02-04T00:22:15.244Z,10.20
2023-02-04T00:25:05.785Z,12.10
2023-02-04T00:27:54.721Z,12.80
2023-02-04T00:30:43.487Z,12.93
2023-02-04T00:33:32.350Z,12.73
2023-02-04T00:36:21.015Z,13.70
2023-02-04T00:39:09.803Z,13.50
2023-02-04T00:42:00.195Z,13.20
2023-02-04T00:44:48.853Z,14.83
2023-02-04T00:47:37.707Z,14.50
2023-02-04T00:50:26.366Z,15.73
2023-02-04T00:53:15.180Z,13.27
2023-02-04T00:56:03.999Z,13.90
2023-02-04T00:58:54.105Z,14.20
2023-02-04T01:01:42.949Z,12.83
2023-02-04T01:04:31.755Z,14.43
2023-02-04T01:07:20.579Z,14.47
2023-02-04T01:10:09.479Z,14.27
2023-02-04T01:12:58.743Z,13.17
2023-02-04T01:15:50.202Z,12.87
2023-02-04T01:18:39.320Z,11.93
2023-02-04T01:21:28.407Z,13.77
2023-02-04T01:24:17.103Z,13.37
2023-02-04T01:27:24.152Z,11.50
2023-02-04T01:30:14.792Z,12.40
2023-02-04T01:33:04.979Z,12.70
2023-02-04T01:35:53.636Z,11.70
2023-02-04T01:38:42.237Z,13.43
2023-02-04T01:41:34.264Z,12.50
2023-02-04T01:44:23.028Z,12.33
2023-02-04T01:47:15.547Z,11.80
2023-02-04T01:50:06.277Z,11.33
2023-02-04T01:52:55.374Z,9.80
2023-02-04T01:55:44.091Z,10.30
2023-02-04T01:58:34.553Z,11.53
2023-02-04T02:01:37.447Z,10.80
2023-02-04T02:04:31.608Z,10.37
2023-02-04T02:07:24.634Z,10.50
2023-02-04T02:10:14.548Z,10.47
2023-02-04T02:13:05.381Z,9.90
2023-02-04T02:15:54.010Z,9.63
2023-02-04T02:18:42.878Z,10.50
2023-02-04T02:21:36.212Z,9.73
2023-02-04T02:24:30.468Z,9.47
2023-02-04T02:27:19.305Z,10.10
2023-02-04T02:30:11.311Z,8.90
2023-02-04T02:33:00.195Z,8.77
2023-02-04T02:35:49.849Z,8.70
2023-02-04T02:38:39.369Z,8.67
2023-02-04T02:41:29.507Z,8.03
2023-02-04T02:44:19.249Z,8.13
2023-02-04T02:47:07.965Z,7.47
2023-02-04T02:49:57.080Z,8.23
2023-02-04T02:52:46.055Z,7.73
2023-02-04T02:55:35.411Z,7.90
2023-02-04T02:58:32.871Z,7.43
2023-02-04T03:01:21.706Z,7.57
2023-02-04T03:04:11.876Z,7.23
2023-02-04T03:07:01.330Z,7.43
2023-02-04T03:09:52.487Z,7.30
2023-02-04T03:12:41.185Z,7.23
2023-02-04T03:15:31.665Z,7.20
2023-02-04T03:18:21.811Z,7.30
2023-02-04T03:21:10.646Z,7.80
2023-02-04T03:24:00.159Z,8.00
2023-02-04T03:26:52.475Z,7.47
2023-02-04T03:29:44.731Z,7.53
2023-02-04T03:32:34.790Z,7.70
2023-02-04T03:35:23.502Z,7.27
2023-02-04T03:38:12.298Z,7.70
2023-02-04T03:41:01.191Z,6.70
2023-02-04T03:43:49.957Z,7.37
2023-02-04T03:46:38.997Z,7.33
2023-02-04T03:49:29.519Z,7.33
2023-02-04T03:52:18.436Z,7.20
2023-02-04T03:55:07.927Z,6.90
2023-02-04T03:57:56.864Z,6.73
2023-02-04T04:00:45.581Z,6.67
2023-02-04T04:03:34.203Z,6.20
2023-02-04T04:06:24.284Z,5.90
2023-02-04T04:09:12.930Z,6.57
2023-02-04T04:12:01.781Z,6.83
2023-02-04T04:14:50.459Z,6.13
2023-02-04T04:17:39.223Z,6.23
2023-02-04T04:20:29.246Z,5.87
2023-02-04T04:23:22.321Z,6.20
2023-02-04T04:26:14.519Z,6.20
2023-02-04T04:29:03.154Z,6.20
2023-02-04T04:31:52.108Z,6.53
2023-02-04T04:34:40.780Z,6.03
2023-02-04T04:37:29.525Z,6.73
2023-02-04T04:40:20.166Z,6.67
2023-02-04T04:43:08.875Z,6.57
2023-02-04T04:45:57.879Z,6.53
2023-02-04T04:48:46.566Z,6.43
2023-02-04T04:51:35.333Z,6.40
2023-02-04T04:54:23.983Z,6.70
2023-02-04T04:57:14.018Z,7.10
2023-02-04T05:00:03.106Z,6.10
2023-02-04T05:02:51.799Z,7.13
2023-02-04T05:05:41.439Z,8.13
2023-02-04T05:08:30.268Z,7.70
2023-02-04T05:11:19.050Z,7.03
2023-02-04T05:14:09.083Z,6.70
2023-02-04T05:16:57.822Z,6.50
2023-02-04T05:19:46.608Z,6.20
2023-02-04T05:22:35.287Z,7.20
2023-02-04T05:25:24.411Z,7.20
2023-02-04T05:28:13.500Z,6.53
2023-02-04T05:31:04.439Z,7.13
2023-02-04T05:33:53.232Z,7.50
2023-02-04T05:36:41.900Z,6.67
2023-02-04T05:39:30.677Z,6.50
2023-02-04T05:42:19.384Z,5.83
2023-02-04T05:45:08.934Z,5.97
2023-02-04T05:48:02.699Z,6.03
2023-02-04T05:50:51.380Z,5.83
2023-02-04T05:53:40.171Z,6.37
2023-02-04T05:56:28.917Z,6.10
2023-02-04T05:59:17.585Z,5.90
2023-02-04T06:02:06.379Z,5.93
2023-02-04T06:04:56.461Z,5.50
2023-02-04T06:07:45.272Z,5.10
2023-02-04T06:10:34.104Z,4.90
2023-02-04T06:13:22.896Z,5.77
2023-02-04T06:16:12.256Z,5.33
2023-02-04T06:19:01.842Z,5.37
2023-02-04T06:21:51.921Z,5.47
2023-02-04T06:24:40.590Z,6.03
2023-02-04T06:27:29.474Z,6.70
2023-02-04T06:30:18.876Z,6.53
2023-02-04T06:33:07.682Z,6.53
2023-02-04T06:35:56.446Z,6.60
2023-02-04T06:38:46.554Z,5.90
2023-02-04T06:41:35.241Z,5.90
2023-02-04T06:44:23.925Z,5.80
2023-02-04T06:47:12.704Z,5.47
2023-02-04T06:50:01.743Z,5.80
2023-02-04T06:52:50.670Z,5.40
2023-02-04T06:55:41.030Z,5.20
2023-02-04T06:58:29.746Z,5.40
2023-02-04T07:01:19.029Z,5.17
2023-02-04T07:04:07.846Z,6.23
2023-02-04T07:06:56.862Z,5.87
2023-02-04T07:09:45.578Z,5.77
2023-02-04T07:12:35.571Z,7.00
2023-02-04T07:15:24.538Z,7.90
2023-02-04T07:18:13.268Z,7.43
2023-02-04T07:21:02.781Z,8.27
2023-02-04T07:23:51.452Z,7.10
2023-02-04T07:26:41.384Z,7.33
2023-02-04T07:29:31.642Z,6.50
2023-02-04T07:32:20.316Z,5.83
2023-02-04T07:35:13.095Z,5.77
2023-02-04T07:38:01.723Z,5.27
2023-02-04T07:40:50.416Z,5.23
2023-02-04T07:43:39.303Z,5.00
2023-02-04T07:46:29.716Z,4.50
2023-02-04T07:49:18.495Z,3.80
2023-02-04T07:52:10.979Z,3.63
2023-02-04T07:54:59.721Z,4.07
2023-02-04T07:57:48.598Z,3.73
2023-02-04T08:00:37.225Z,3.63
2023-02-04T08:03:27.771Z,3.67
2023-02-04T08:06:16.649Z,3.73
2023-02-04T08:09:05.755Z,3.30
2023-02-04T08:11:55.292Z,3.40
2023-02-04T08:14:43.970Z,3.13
2023-02-04T08:17:32.984Z,3.47
2023-02-04T08:20:23.383Z,3.40
2023-02-04T08:23:12.122Z,3.20
2023-02-04T08:26:01.066Z,3.53
2023-02-04T08:28:49.757Z,3.33
2023-02-04T08:31:38.873Z,3.43
2023-02-04T08:34:27.714Z,3.37
2023-02-04T08:37:17.750Z,3.93
2023-02-04T08:40:07.244Z,3.83
2023-02-04T08:42:55.909Z,4.03
2023-02-04T08:45:44.525Z,3.57
2023-02-04T08:48:33.305Z,3.70
2023-02-04T08:51:21.998Z,3.50
2023-02-04T08:54:12.366Z,3.13
2023-02-04T08:57:01.048Z,2.87
2023-02-04T08:59:49.668Z,2.60
2023-02-04T09:02:38.329Z,2.37
2023-02-04T09:05:27.046Z,2.27
2023-02-04T09:08:15.896Z,2.10
2023-02-04T09:11:06.264Z,2.10
2023-02-04T09:13:56.837Z,1.87
2023-02-04T09:16:45.661Z,2.60
2023-02-04T09:19:34.452Z,2.80
2023-02-04T09:22:23.119Z,3.47
2023-02-04T09:25:11.805Z,2.23
2023-02-04T09:28:02.056Z,2.20
2023-02-04T09:30:50.792Z,1.83
2023-02-04T09:33:39.667Z,2.57
2023-02-04T09:36:30.663Z,2.00
2023-02-04T09:39:19.347Z,2.20
2023-02-04T09:42:08.679Z,1.97
2023-02-04T09:45:00.883Z,2.10
2023-02-04T09:47:50.293Z,1.90
2023-02-04T09:50:38.997Z,1.80
2023-02-04T09:53:27.686Z,2.07
2023-02-04T09:56:17.275Z,2.23
2023-02-04T09:59:07.798Z,2.43
2023-02-04T10:02:03.203Z,2.03
2023-02-04T10:04:54.028Z,2.03
2023-02-04T10:07:42.830Z,2.23
2023-02-04T10:10:31.934Z,1.93
2023-02-04T10:13:24.190Z,2.33
2023-02-04T10:16:16.927Z,2.37
2023-02-04T10:19:13.063Z,2.27
2023-02-04T10:22:02.012Z,2.17
2023-02-04T10:24:51.037Z,2.20
2023-02-04T10:27:49.771Z,2.40
2023-02-04T10:30:43.765Z,2.63
2023-02-04T10:33:33.344Z,2.40
2023-02-04T10:36:23.401Z,2.60
2023-02-04T10:39:17.096Z,2.97
2023-02-04T10:42:07.083Z,2.90
2023-02-04T10:44:56.042Z,3.13
2023-02-04T10:47:52.718Z,2.93
2023-02-04T10:50:41.437Z,2.90
2023-02-04T10:53:48.723Z,3.57
2023-02-04T10:56:37.477Z,2.70
2023-02-04T10:59:29.187Z,2.70
2023-02-04T11:02:38.506Z,2.47
2023-02-04T11:05:32.929Z,2.67
2023-02-04T11:08:24.951Z,2.57
2023-02-04T11:11:19.753Z,2.10
2023-02-04T11:14:24.941Z,2.20
2023-02-04T11:17:21.796Z,2.47
2023-02-04T11:20:18.047Z,2.50
2023-02-04T11:23:36.993Z,2.37
2023-02-04T11:26:36.830Z,2.90
2023-02-04T11:29:34.979Z,3.13
2023-02-04T11:32:37.728Z,2.93
2023-02-04T11:35:28.848Z,2.30
2023-02-04T11:38:27.457Z,4.33
2023-02-04T11:41:22.531Z,6.57
2023-02-04T11:44:13.863Z,5.57
2023-02-04T11:47:08.176Z,3.10
2023-02-04T11:50:01.443Z,5.20
2023-02-04T11:52:50.104Z,17.40
2023-02-04T11:55:47.555Z,7.80
2023-02-04T11:58:39.978Z,4.97
2023-02-04T12:01:36.056Z,4.03
2023-02-04T12:04:26.277Z,5.03
2023-02-04T12:07:22.828Z,5.07
2023-02-04T12:10:26.675Z,5.23
2023-02-04T12:13:24.154Z,8.93
2023-02-04T12:16:12.991Z,5.40
2023-02-04T12:19:03.829Z,6.63
2023-02-04T12:21:52.805Z,9.20
2023-02-04T12:24:41.454Z,10.20
2023-02-04T12:27:30.512Z,10.93
2023-02-04T12:30:20.713Z,8.27
2023-02-04T12:33:09.572Z,18.03
2023-02-04T12:36:00.310Z,5.37
2023-02-04T12:38:48.951Z,5.83
2023-02-04T12:41:37.898Z,4.57
2023-02-04T12:44:26.686Z,9.63
2023-02-04T12:47:15.287Z,10.40
2023-02-04T12:50:04.154Z,7.00
2023-02-04T12:52:56.241Z,3.80
2023-02-04T12:55:44.859Z,5.90
2023-02-04T12:58:33.614Z,3.70
2023-02-04T13:01:22.280Z,5.73
2023-02-04T13:04:10.922Z,7.90
2023-02-04T13:06:59.683Z,4.20
2023-02-04T13:09:49.898Z,4.20
2023-02-04T13:12:38.895Z,6.83
2023-02-04T13:15:27.756Z,4.13
2023-02-04T13:18:18.538Z,7.93
2023-02-04T13:21:07.371Z,3.17
2023-02-04T13:23:59.869Z,5.00
2023-02-04T13:26:50.084Z,4.23
2023-02-04T13:29:42.539Z,6.70
2023-02-04T13:32:31.650Z,7.90
2023-02-04T13:35:20.505Z,7.17
2023-02-04T13:38:09.183Z,7.60
2023-02-04T13:40:57.906Z,6.90
2023-02-04T13:43:47.904Z,6.43
2023-02-04T13:46:36.643Z,6.23
2023-02-04T13:49:25.440Z,4.30
2023-02-04T13:52:14.398Z,8.60
2023-02-04T13:55:03.501Z,3.77
2023-02-04T13:57:52.771Z,11.67
2023-02-04T14:00:42.862Z,4.83
2023-02-04T14:03:32.027Z,3.20
2023-02-04T14:06:21.779Z,7.70
2023-02-04T14:09:11.860Z,6.93
2023-02-04T14:12:00.581Z,7.87
2023-02-04T14:14:49.303Z,5.00
2023-02-04T14:17:39.366Z,5.37
2023-02-04T14:20:28.138Z,3.20
2023-02-04T14:23:16.857Z,2.10
2023-02-04T14:26:05.733Z,4.83
2023-02-04T14:28:54.965Z,3.00
2023-02-04T14:31:43.674Z,3.00
2023-02-04T14:34:33.824Z,3.23
2023-02-04T14:37:25.657Z,3.30
2023-02-04T14:40:16.040Z,3.37
2023-02-04T14:43:04.747Z,16.63
2023-02-04T14:45:53.872Z,11.97
2023-02-04T14:48:42.497Z,5.20
2023-02-04T14:51:32.759Z,3.40
2023-02-04T14:54:21.436Z,2.77
2023-02-04T14:57:11.998Z,2.90
2023-02-04T15:00:00.728Z,2.60
2023-02-04T15:02:49.518Z,2.77
2023-02-04T15:05:38.231Z,2.37
2023-02-04T15:08:28.969Z,2.53
2023-02-04T15:11:17.761Z,3.07
2023-02-04T15:14:06.715Z,2.67
2023-02-04T15:16:55.942Z,2.90
2023-02-04T15:19:44.614Z,3.10
2023-02-04T15:22:33.480Z,2.53
2023-02-04T15:25:24.078Z,2.80
2023-02-04T15:28:12.695Z,2.70
2023-02-04T15:31:02.243Z,2.70
2023-02-04T15:33:51.025Z,2.83
2023-02-04T15:36:39.652Z,2.50
2023-02-04T15:39:28.681Z,2.87
2023-02-04T15:42:18.661Z,3.20
2023-02-04T15:45:08.622Z,3.93
2023-02-04T15:47:57.534Z,10.67
2023-02-04T15:50:46.402Z,5.73
2023-02-04T15:53:35.304Z,4.40
2023-02-04T15:56:23.988Z,5.03
2023-02-04T15:59:15.656Z,7.57
2023-02-04T16:02:04.444Z,3.83
2023-02-04T16:04:56.414Z,3.60
2023-02-04T16:07:45.070Z,3.40
2023-02-04T16:10:34.034Z,3.70
2023-02-04T16:13:23.904Z,3.27
2023-02-04T16:16:14.197Z,4.37
2023-02-04T16:19:03.146Z,3.47
2023-02-04T16:21:52.015Z,3.80
2023-02-04T16:24:40.715Z,3.73
2023-02-04T16:27:30.202Z,3.63
2023-02-04T16:30:19.127Z,4.03
2023-02-04T16:33:09.152Z,3.57
2023-02-04T16:36:00.449Z,4.50
2023-02-04T16:38:49.322Z,5.20
2023-02-04T16:41:38.149Z,5.00
2023-02-04T16:44:26.897Z,4.83
2023-02-04T16:47:15.608Z,4.57
2023-02-04T16:50:05.932Z,3.87
2023-02-04T16:52:54.533Z,4.27
2023-02-04T16:55:43.850Z,5.53
2023-02-04T16:58:32.693Z,6.47
2023-02-04T17:01:21.328Z,5.00
2023-02-04T17:04:10.015Z,5.00
2023-02-04T17:07:00.730Z,5.40
2023-02-04T17:09:49.400Z,5.67
2023-02-04T17:12:38.319Z,5.70
2023-02-04T17:15:27.086Z,6.10
2023-02-04T17:18:15.833Z,6.00
2023-02-04T17:21:04.823Z,6.10
2023-02-04T17:23:55.992Z,6.40
2023-02-04T17:26:45.026Z,6.20
2023-02-04T17:29:33.648Z,6.60
2023-02-04T17:32:22.510Z,6.17
2023-02-04T17:35:11.475Z,6.03
2023-02-04T17:38:01.408Z,6.30
2023-02-04T17:40:51.922Z,5.90
2023-02-04T17:43:40.703Z,5.70
2023-02-04T17:46:29.399Z,5.27
2023-02-04T17:49:18.185Z,5.33
2023-02-04T17:52:06.826Z,5.60
2023-02-04T17:54:55.679Z,5.13
2023-02-04T17:57:45.842Z,5.23
2023-02-04T18:00:35.065Z,7.27
2023-02-04T18:03:25.359Z,5.90
2023-02-04T18:06:20.930Z,7.03
2023-02-04T18:09:16.106Z,8.83
2023-02-04T18:12:14.075Z,5.80
2023-02-04T18:15:24.488Z,5.40
2023-02-04T18:18:21.276Z,5.57
2023-02-04T18:21:20.583Z,5.40
2023-02-04T18:24:19.395Z,5.93
2023-02-04T18:27:17.011Z,6.17
2023-02-04T18:30:20.132Z,6.40
2023-02-04T18:33:17.795Z,7.00
2023-02-04T18:36:07.242Z,7.07
2023-02-04T18:38:56.562Z,6.87
2023-02-04T18:41:48.987Z,7.53
2023-02-04T18:44:39.695Z,8.50
2023-02-04T18:47:33.646Z,8.27
2023-02-04T18:50:28.242Z,8.50
2023-02-04T18:53:23.100Z,8.70
2023-02-04T18:56:18.299Z,8.97
2023-02-04T18:59:17.043Z,9.00
2023-02-04T19:02:25.378Z,8.57
2023-02-04T19:05:27.030Z,8.70
2023-02-04T19:08:24.930Z,8.90
2023-02-04T19:11:26.463Z,8.17
2023-02-04T19:14:22.530Z,8.60
2023-02-04T19:17:25.682Z,8.90
2023-02-04T19:20:22.966Z,10.10
2023-02-04T19:23:16.713Z,8.33
2023-02-04T19:26:26.101Z,8.63
2023-02-04T19:29:38.662Z,8.33
2023-02-04T19:32:30.189Z,8.40
2023-02-04T19:35:22.301Z,9.10
2023-02-04T19:38:31.586Z,9.17
2023-02-04T19:41:29.192Z,8.70
2023-02-04T19:44:34.475Z,8.40
2023-02-04T19:47:27.890Z,8.40
2023-02-04T19:50:25.964Z,8.03
2023-02-04T19:53:19.785Z,9.03
2023-02-04T19:56:29.443Z,8.60
2023-02-04T19:59:26.388Z,8.53
2023-02-04T20:02:33.971Z,8.80
2023-02-04T20:05:26.698Z,8.33
2023-02-04T20:08:45.187Z,7.67
2023-02-04T20:11:57.395Z,7.80
2023-02-04T20:14:52.562Z,8.90
2023-02-04T20:17:43.190Z,8.77
2023-02-04T20:20:36.049Z,8.97
2023-02-04T20:23:30.162Z,8.77
2023-02-04T20:26:19.151Z,8.67
2023-02-04T20:29:20.147Z,8.40
2023-02-04T20:32:18.820Z,8.70
2023-02-04T20:36:02.816Z,9.53
2023-02-04T20:38:58.549Z,9.17
2023-02-04T20:41:48.489Z,9.20
2023-02-04T20:44:42.028Z,9.73
2023-02-04T20:47:35.863Z,9.87
2023-02-04T20:50:38.332Z,9.57
2023-02-04T20:53:28.516Z,9.50
2023-02-04T20:56:27.136Z,9.27
2023-02-04T20:59:30.180Z,8.77
2023-02-04T21:02:20.932Z,9.17
2023-02-04T21:05:24.507Z,8.93
2023-02-04T21:08:27.766Z,9.00
2023-02-04T21:11:16.653Z,8.30
2023-02-04T21:14:07.439Z,9.53
2023-02-04T21:16:57.130Z,9.40
2023-02-04T21:19:45.999Z,9.13
2023-02-04T21:22:34.824Z,9.17
2023-02-04T21:25:23.635Z,9.00
2023-02-04T21:28:12.543Z,9.50
2023-02-04T21:31:03.428Z,9.20
2023-02-04T21:33:53.669Z,9.70
2023-02-04T21:36:42.795Z,10.27
2023-02-04T21:39:31.652Z,9.90
2023-02-04T21:42:20.561Z,9.50
2023-02-04T21:45:10.218Z,11.13
2023-02-04T21:48:00.389Z,10.37
2023-02-04T21:50:49.170Z,10.27
2023-02-04T21:53:39.119Z,9.70
2023-02-04T21:56:27.752Z,10.57
2023-02-04T21:59:18.796Z,10.17
2023-02-04T22:02:07.825Z,9.57
2023-02-04T22:04:57.855Z,9.30
2023-02-04T22:07:46.628Z,10.07
2023-02-04T22:10:35.372Z,10.50
2023-02-04T22:13:24.090Z,10.17
2023-02-04T22:16:12.899Z,9.23
2023-02-04T22:19:01.553Z,9.40
2023-02-04T22:21:51.599Z,9.00
2023-02-04T22:24:40.244Z,8.53
2023-02-04T22:27:29.352Z,9.20
2023-02-04T22:30:19.330Z,7.73
2023-02-04T22:33:08.634Z,8.20
2023-02-04T22:35:57.258Z,9.03
2023-02-04T22:38:47.403Z,8.40
2023-02-04T22:41:36.113Z,9.70
2023-02-04T22:44:25.004Z,9.13
2023-02-04T22:47:14.015Z,8.80
2023-02-04T22:50:03.239Z,8.70
2023-02-04T22:52:51.931Z,8.60
2023-02-04T22:55:41.897Z,8.23
2023-02-04T22:58:31.679Z,8.20
2023-02-04T23:01:20.641Z,9.50
2023-02-04T23:04:09.307Z,8.10
2023-02-04T23:06:58.339Z,8.17
2023-02-04T23:09:46.967Z,8.57
2023-02-04T23:12:37.071Z,7.90
2023-02-04T23:15:25.821Z,7.37
2023-02-04T23:18:14.615Z,7.57
2023-02-04T23:21:05.458Z,7.40
2023-02-04T23:23:54.475Z,7.23
2023-02-04T23:26:43.419Z,8.03
2023-02-04T23:29:35.360Z,8.00
2023-02-04T23:32:27.115Z,7.83
2023-02-04T23:35:15.987Z,7.83
2023-02-04T23:38:04.671Z,8.43
2023-02-04T23:40:53.455Z,8.00
2023-02-04T23:43:42.183Z,8.03
2023-02-04T23:46:32.627Z,7.70
2023-02-04T23:49:21.578Z,7.20
2023-02-04T23:52:10.238Z,7.07
2023-02-04T23:54:58.942Z,6.30
2023-02-04T23:57:49.675Z,6.77
